Terminal Aerodrome Forecast
Issued by NWS

Current Version | Previous Version | Text Only | Print | Product List | Glossary On
Versions: 1 2 3 4 5 6 7 8 9 10 11 12 13 14 15 16 17 18 19 20 21 22 23 24 25 26 27 28
000
FTUS46 KPDT 201727
TAFDLS
TAF
KDLS 201727Z 2018/2118 32008KT P6SM -SHRA SCT005 OVC070
      TEMPO 2018/2020 3SM SHRA BKN005 OVC070
     FM202100 30015G25KT P6SM VCSH SCT070
     FM210100 29008KT P6SM SCT070 OVC200
     FM211000 VRB04KT P6SM -RA OVC050=

USA.gov is the U.S. government's official web portal to all federal, state and local government web resources and services.